Midway City, California
Current Conditions -  °F | °C
As of 2:58 AM on Saturday 22 Nov 2014 (Local Time) from KSLI Reporting Station
Clear Clear  
Wind Chill: 53°   Ceiling: Unl
Heat Index: 53°   Visibility: 10mi
Dew Point: 47°   Wind: 5mph
Humidity: 79%   Direction: 50°NE
Pressure: 30.07"   Gusts: NA
Location:  33.74°N, 117.99°W
Report Text: KSLI 221058Z AUTO 05004KT 10SM CLR 12/08 A3007 RMK AO2 SLP186 T01190083
Loading
Personal Weather Stations






























Interactive Weather Map New forecast layout! Learn more

10-Day Weather Forecast

Advertisements
Track Severe Weather on mobile